createdAt,value
2022-12-07T00:01:46.168Z,7.38
2022-12-07T00:04:17.651Z,7.40
2022-12-07T00:06:48.406Z,7.22
2022-12-07T00:09:18.167Z,7.39
2022-12-07T00:11:49.721Z,7.54
2022-12-07T00:14:22.148Z,7.52
2022-12-07T00:16:52.324Z,7.47
2022-12-07T00:19:20.168Z,7.45
2022-12-07T00:21:47.854Z,7.51
2022-12-07T00:24:15.509Z,7.43
2022-12-07T00:26:43.697Z,7.54
2022-12-07T00:29:20.891Z,7.51
2022-12-07T00:31:48.940Z,7.39
2022-12-07T00:34:20.315Z,7.44
2022-12-07T00:36:48.607Z,7.48
2022-12-07T00:39:21.624Z,7.45
2022-12-07T00:41:49.430Z,7.47
2022-12-07T00:44:17.118Z,7.44
2022-12-07T00:46:46.275Z,7.44
2022-12-07T00:49:13.738Z,7.48
2022-12-07T00:51:41.522Z,7.46
2022-12-07T00:54:09.219Z,7.48
2022-12-07T00:56:36.808Z,7.56
2022-12-07T00:59:05.160Z,7.66
2022-12-07T01:01:37.051Z,7.58
2022-12-07T01:04:05.838Z,7.70
2022-12-07T01:06:33.811Z,7.63
2022-12-07T01:09:02.147Z,7.55
2022-12-07T01:11:31.668Z,7.53
2022-12-07T01:14:02.012Z,7.66
2022-12-07T01:16:32.345Z,7.68
2022-12-07T01:19:01.872Z,7.52
2022-12-07T01:21:36.896Z,7.55
2022-12-07T01:24:08.274Z,7.42
2022-12-07T01:26:36.052Z,7.39
2022-12-07T01:29:03.981Z,7.35
2022-12-07T01:31:32.106Z,7.38
2022-12-07T01:34:01.891Z,7.51
2022-12-07T01:36:33.719Z,7.61
2022-12-07T01:39:06.164Z,7.37
2022-12-07T01:41:40.293Z,7.41
2022-12-07T01:44:19.880Z,7.35
2022-12-07T01:46:58.793Z,7.34
2022-12-07T01:49:34.947Z,7.42
2022-12-07T01:52:19.682Z,7.45
2022-12-07T01:54:49.514Z,7.40
2022-12-07T01:57:18.223Z,7.36
2022-12-07T01:59:52.225Z,7.34
2022-12-07T02:02:29.375Z,7.16
2022-12-07T02:04:58.371Z,7.18
2022-12-07T02:07:27.966Z,7.27
2022-12-07T02:09:55.973Z,7.24
2022-12-07T02:12:25.961Z,7.16
2022-12-07T02:14:53.896Z,7.19
2022-12-07T02:17:38.733Z,7.24
2022-12-07T02:20:40.431Z,7.24
2022-12-07T02:23:29.224Z,7.13
2022-12-07T02:26:18.702Z,7.16
2022-12-07T02:29:22.077Z,7.18
2022-12-07T02:32:13.113Z,7.25
2022-12-07T02:34:55.502Z,7.25
2022-12-07T02:37:49.931Z,7.22
2022-12-07T02:40:35.299Z,7.24
2022-12-07T02:43:18.454Z,7.29
2022-12-07T02:45:48.850Z,7.32
2022-12-07T02:48:19.901Z,7.30
2022-12-07T02:50:54.951Z,7.19
2022-12-07T02:53:44.799Z,7.28
2022-12-07T02:56:40.862Z,7.28
2022-12-07T02:59:49.923Z,7.19
2022-12-07T03:03:00.327Z,7.24
2022-12-07T03:05:55.548Z,7.30
2022-12-07T03:08:39.787Z,7.18
2022-12-07T03:11:10.118Z,7.09
2022-12-07T03:14:01.477Z,7.01
2022-12-07T03:16:37.097Z,7.03
2022-12-07T03:19:21.409Z,7.11
2022-12-07T03:22:04.110Z,7.09
2022-12-07T03:24:53.250Z,7.12
2022-12-07T03:27:30.457Z,7.07
2022-12-07T03:30:09.737Z,7.09
2022-12-07T03:32:46.874Z,7.13
2022-12-07T03:35:45.573Z,6.98
2022-12-07T03:39:20.641Z,7.07
2022-12-07T03:42:51.564Z,7.13
2022-12-07T03:46:07.773Z,7.03
2022-12-07T03:48:47.555Z,6.85
2022-12-07T03:51:25.674Z,6.87
2022-12-07T03:54:05.503Z,6.75
2022-12-07T03:56:36.781Z,6.75
2022-12-07T03:59:15.507Z,6.81
2022-12-07T04:01:45.253Z,6.87
2022-12-07T04:04:17.020Z,6.60
2022-12-07T04:06:44.982Z,6.75
2022-12-07T04:09:15.433Z,6.66
2022-12-07T04:11:44.615Z,6.59
2022-12-07T04:14:21.994Z,6.40
2022-12-07T04:16:59.089Z,6.58
2022-12-07T04:19:30.760Z,6.43
2022-12-07T04:22:00.535Z,6.38
2022-12-07T04:24:33.501Z,6.31
2022-12-07T04:27:01.760Z,6.12
2022-12-07T04:29:32.096Z,6.28
2022-12-07T04:31:59.824Z,6.36
2022-12-07T04:34:27.779Z,6.45
2022-12-07T04:36:56.042Z,6.43
2022-12-07T04:39:28.202Z,6.54
2022-12-07T04:41:58.226Z,6.54
2022-12-07T04:44:43.988Z,6.41
2022-12-07T04:47:28.964Z,6.11
2022-12-07T04:49:59.642Z,6.09
2022-12-07T04:53:00.606Z,5.80
2022-12-07T04:55:41.392Z,5.97
2022-12-07T04:58:12.840Z,5.79
2022-12-07T05:00:48.297Z,5.56
2022-12-07T05:03:31.512Z,5.82
2022-12-07T05:06:11.769Z,5.82
2022-12-07T05:08:55.503Z,5.81
2022-12-07T05:11:49.612Z,5.64
2022-12-07T05:14:36.913Z,5.60
2022-12-07T05:17:12.575Z,5.55
2022-12-07T05:19:43.057Z,5.89
2022-12-07T05:22:33.115Z,5.67
2022-12-07T05:25:08.245Z,5.71
2022-12-07T05:27:49.941Z,5.68
2022-12-07T05:30:24.373Z,5.71
2022-12-07T05:33:01.816Z,5.65
2022-12-07T05:35:39.689Z,5.52
2022-12-07T05:38:22.894Z,5.67
2022-12-07T05:41:06.829Z,5.67
2022-12-07T05:44:20.756Z,5.58
2022-12-07T05:46:57.871Z,5.60
2022-12-07T05:49:40.863Z,5.68
2022-12-07T05:52:09.192Z,5.68
2022-12-07T05:54:47.350Z,5.65
2022-12-07T05:57:28.428Z,5.60
2022-12-07T06:00:06.424Z,5.55
2022-12-07T06:02:54.781Z,5.56
2022-12-07T06:05:50.152Z,5.59
2022-12-07T06:08:17.565Z,5.59
2022-12-07T06:11:09.772Z,5.66
2022-12-07T06:13:42.471Z,5.68
2022-12-07T06:16:21.595Z,5.70
2022-12-07T06:18:49.829Z,5.73
2022-12-07T06:21:34.225Z,5.76
2022-12-07T06:24:29.560Z,5.78
2022-12-07T06:27:06.217Z,5.73
2022-12-07T06:29:39.956Z,5.80
2022-12-07T06:32:15.720Z,5.83
2022-12-07T06:34:47.662Z,5.71
2022-12-07T06:37:22.089Z,5.69
2022-12-07T06:39:52.465Z,5.78
2022-12-07T06:42:20.460Z,5.79
2022-12-07T06:44:51.056Z,5.79
2022-12-07T06:50:20.828Z,5.72
2022-12-07T06:52:50.185Z,5.89
2022-12-07T06:55:18.327Z,5.92
2022-12-07T06:57:59.047Z,5.91
2022-12-07T07:00:38.063Z,5.90
2022-12-07T07:03:29.068Z,6.01
2022-12-07T07:08:55.172Z,6.11
2022-12-07T07:11:38.702Z,5.53
2022-12-07T07:14:13.945Z,5.65
2022-12-07T07:17:08.342Z,5.65
2022-12-07T07:20:08.883Z,5.90
2022-12-07T07:23:16.189Z,5.96
2022-12-07T07:26:07.032Z,6.00
2022-12-07T07:29:05.938Z,6.10
2022-12-07T07:31:43.676Z,6.12
2022-12-07T07:34:23.024Z,6.17
2022-12-07T07:36:55.383Z,6.12
2022-12-07T07:39:28.508Z,6.23
2022-12-07T07:42:00.778Z,6.31
2022-12-07T07:44:35.457Z,6.39
2022-12-07T07:47:17.588Z,6.37
2022-12-07T07:50:07.280Z,6.37
2022-12-07T07:52:50.282Z,6.37
2022-12-07T07:55:18.535Z,6.30
2022-12-07T07:57:56.760Z,6.20
2022-12-07T08:01:15.338Z,6.40
2022-12-07T08:03:47.943Z,6.58
2022-12-07T08:06:43.415Z,6.71
2022-12-07T08:09:17.280Z,6.64
2022-12-07T08:11:52.637Z,6.69
2022-12-07T08:14:45.538Z,6.58
2022-12-07T08:18:18.259Z,6.72
2022-12-07T08:21:36.659Z,6.50
2022-12-07T08:23:51.927Z,6.46
2022-12-07T08:26:39.353Z,5.43
2022-12-07T08:29:39.172Z,5.96
2022-12-07T08:32:10.003Z,6.06
2022-12-07T08:34:56.473Z,6.04
2022-12-07T08:37:28.761Z,6.46
2022-12-07T08:43:42.770Z,6.50
2022-12-07T08:46:40.819Z,6.43
2022-12-07T08:50:47.616Z,6.78
2022-12-07T08:52:56.462Z,7.07
2022-12-07T08:59:39.963Z,6.13
2022-12-07T09:01:47.476Z,6.41
2022-12-07T09:04:23.902Z,6.62
2022-12-07T09:06:57.262Z,6.63
2022-12-07T09:09:38.464Z,7.05
2022-12-07T09:12:34.795Z,7.10
2022-12-07T09:15:10.068Z,7.32
2022-12-07T09:17:38.661Z,7.40
2022-12-07T09:20:23.310Z,6.87
2022-12-07T09:23:00.301Z,6.85
2022-12-07T09:25:35.979Z,7.18
2022-12-07T09:28:20.759Z,7.22
2022-12-07T09:31:32.846Z,6.13
2022-12-07T09:34:27.179Z,6.84
2022-12-07T09:40:34.488Z,5.87
2022-12-07T09:43:15.872Z,6.71
2022-12-07T09:45:55.279Z,7.05
2022-12-07T09:48:45.418Z,7.51
2022-12-07T09:51:26.128Z,6.39
2022-12-07T09:54:05.613Z,6.87
2022-12-07T09:56:50.253Z,7.28
2022-12-07T09:59:20.340Z,7.53
2022-12-07T10:01:58.839Z,7.46
2022-12-07T10:04:29.826Z,7.44
2022-12-07T10:07:14.560Z,7.91
2022-12-07T10:09:55.595Z,7.83
2022-12-07T10:13:05.654Z,8.27
2022-12-07T10:15:54.773Z,8.33
2022-12-07T10:18:32.306Z,7.58
2022-12-07T10:21:25.732Z,8.11
2022-12-07T10:24:22.565Z,8.48
2022-12-07T10:26:57.402Z,8.68
2022-12-07T10:30:03.085Z,8.89
2022-12-07T10:32:37.893Z,8.67
2022-12-07T10:35:34.299Z,9.13
2022-12-07T10:38:18.288Z,9.10
2022-12-07T10:40:46.743Z,8.76
2022-12-07T10:43:14.382Z,8.42
2022-12-07T10:46:14.671Z,8.22
2022-12-07T10:49:18.537Z,8.37
2022-12-07T10:52:03.780Z,8.64
2022-12-07T10:54:49.891Z,8.64
2022-12-07T10:57:48.881Z,8.88
2022-12-07T11:00:23.914Z,9.08
2022-12-07T11:03:26.919Z,9.19
2022-12-07T11:06:30.372Z,9.14
2022-12-07T11:09:10.300Z,9.01
2022-12-07T11:11:59.547Z,8.98
2022-12-07T11:14:57.379Z,8.49
2022-12-07T11:17:57.756Z,8.46
2022-12-07T11:20:47.820Z,8.46
2022-12-07T11:24:03.926Z,8.40
2022-12-07T11:26:34.196Z,8.63
2022-12-07T11:29:50.235Z,7.96
2022-12-07T11:32:22.493Z,8.02
2022-12-07T11:35:20.394Z,7.95
2022-12-07T11:37:51.025Z,7.84
2022-12-07T11:40:30.685Z,7.74
2022-12-07T11:43:29.727Z,7.95
2022-12-07T11:46:10.696Z,7.82
2022-12-07T11:49:16.425Z,8.05
2022-12-07T11:51:45.694Z,8.01
2022-12-07T11:54:25.122Z,7.95
2022-12-07T11:56:56.267Z,8.01
2022-12-07T11:59:48.423Z,7.96
2022-12-07T12:02:36.753Z,8.14
2022-12-07T12:05:17.794Z,8.14
2022-12-07T12:10:53.824Z,8.07
2022-12-07T12:17:39.682Z,7.97
2022-12-07T12:20:42.483Z,8.22
2022-12-07T12:23:26.328Z,8.43
2022-12-07T12:26:05.426Z,8.57
2022-12-07T12:29:05.160Z,8.67
2022-12-07T12:31:42.365Z,8.86
2022-12-07T12:34:48.494Z,8.92
2022-12-07T12:37:36.126Z,9.04
2022-12-07T12:40:16.726Z,8.69
2022-12-07T12:42:53.676Z,8.77
2022-12-07T12:45:33.658Z,8.80
2022-12-07T12:48:30.000Z,8.74
2022-12-07T12:51:37.546Z,8.82
2022-12-07T12:54:12.180Z,8.85
2022-12-07T12:56:56.317Z,8.73
2022-12-07T12:59:53.209Z,8.81
2022-12-07T13:02:38.358Z,8.83
2022-12-07T13:05:10.985Z,8.81
2022-12-07T13:07:47.985Z,8.79
2022-12-07T13:10:30.539Z,8.96
2022-12-07T13:13:32.651Z,9.02
2022-12-07T13:16:09.531Z,8.93
2022-12-07T13:18:39.033Z,8.69
2022-12-07T13:21:13.001Z,8.63
2022-12-07T13:24:01.983Z,8.75
2022-12-07T13:26:35.265Z,8.68
2022-12-07T13:29:24.253Z,8.42
2022-12-07T13:31:59.826Z,8.73
2022-12-07T13:34:41.665Z,8.72
2022-12-07T13:37:33.687Z,8.72
2022-12-07T13:40:21.865Z,8.63
2022-12-07T13:42:59.056Z,8.29
2022-12-07T13:45:49.367Z,8.38
2022-12-07T13:48:33.866Z,8.48
2022-12-07T13:51:04.321Z,8.35
2022-12-07T13:53:32.245Z,8.28
2022-12-07T13:56:02.240Z,8.16
2022-12-07T13:58:34.103Z,8.32
2022-12-07T14:01:02.089Z,8.28
2022-12-07T14:03:36.913Z,8.23
2022-12-07T14:06:29.101Z,8.23
2022-12-07T14:09:10.021Z,8.46
2022-12-07T14:11:38.621Z,8.65
2022-12-07T14:14:07.183Z,8.57
2022-12-07T14:16:39.867Z,8.73
2022-12-07T14:19:53.835Z,8.54
2022-12-07T14:22:32.457Z,8.66
2022-12-07T14:25:23.622Z,8.80
2022-12-07T14:28:34.851Z,8.75
2022-12-07T14:31:04.363Z,8.89
2022-12-07T14:33:31.993Z,8.82
2022-12-07T14:35:59.639Z,8.99
2022-12-07T14:38:33.271Z,8.94
2022-12-07T14:41:21.270Z,8.92
2022-12-07T14:44:21.402Z,8.92
2022-12-07T14:46:37.244Z,8.85
2022-12-07T14:54:43.717Z,8.88
2022-12-07T14:57:12.245Z,8.73
2022-12-07T14:59:44.867Z,8.68
2022-12-07T15:02:21.103Z,8.68
2022-12-07T15:04:48.793Z,8.63
2022-12-07T15:07:23.261Z,8.70
2022-12-07T15:09:51.031Z,8.67
2022-12-07T15:12:18.649Z,8.67
2022-12-07T15:14:46.396Z,8.59
2022-12-07T15:17:26.039Z,8.59
2022-12-07T15:19:57.458Z,8.60
2022-12-07T15:22:25.107Z,8.60
2022-12-07T15:24:52.681Z,8.54
2022-12-07T15:27:20.435Z,8.61
2022-12-07T15:29:48.024Z,8.52
2022-12-07T15:32:15.654Z,8.56
2022-12-07T15:34:43.272Z,8.59
2022-12-07T15:37:10.951Z,8.57
2022-12-07T15:39:39.169Z,8.56
2022-12-07T15:42:06.782Z,8.49
2022-12-07T15:44:52.740Z,8.45
2022-12-07T15:47:20.528Z,8.43
2022-12-07T15:49:48.128Z,8.41
2022-12-07T15:52:16.989Z,8.32
2022-12-07T15:54:44.696Z,8.28
2022-12-07T15:57:12.347Z,8.40
2022-12-07T15:59:39.982Z,8.21
2022-12-07T16:02:09.496Z,8.24
2022-12-07T16:04:37.646Z,8.26
2022-12-07T16:07:05.330Z,8.23
2022-12-07T16:09:34.504Z,8.05
2022-12-07T16:12:02.158Z,7.93
2022-12-07T16:14:37.033Z,7.87
2022-12-07T16:17:05.483Z,7.79
2022-12-07T16:19:34.232Z,7.87
2022-12-07T16:22:02.148Z,7.89
2022-12-07T16:24:29.968Z,7.58
2022-12-07T16:26:57.752Z,7.63
2022-12-07T16:29:25.378Z,7.62
2022-12-07T16:31:53.410Z,7.77
2022-12-07T16:34:21.179Z,7.67
2022-12-07T16:37:05.510Z,7.78
2022-12-07T16:39:34.937Z,7.79
2022-12-07T16:42:03.219Z,7.66
2022-12-07T16:44:32.369Z,7.59
2022-12-07T16:47:01.261Z,7.67
2022-12-07T16:49:28.961Z,7.56
2022-12-07T16:52:19.280Z,7.65
2022-12-07T16:54:44.444Z,7.76
2022-12-07T16:57:15.498Z,7.44
2022-12-07T16:59:49.898Z,7.12
2022-12-07T17:02:22.554Z,6.93
2022-12-07T17:04:56.566Z,6.87
2022-12-07T17:07:24.303Z,6.85
2022-12-07T17:09:53.519Z,6.98
2022-12-07T17:12:21.277Z,6.80
2022-12-07T17:15:07.859Z,6.65
2022-12-07T17:17:35.909Z,6.68
2022-12-07T17:20:04.788Z,6.77
2022-12-07T17:22:32.572Z,6.86
2022-12-07T17:28:59.960Z,6.62
2022-12-07T17:31:30.154Z,6.53
2022-12-07T17:33:57.792Z,6.61
2022-12-07T17:36:29.310Z,6.58
2022-12-07T17:38:58.299Z,6.43
2022-12-07T17:41:46.872Z,6.37
2022-12-07T17:44:19.270Z,6.47
2022-12-07T17:46:51.009Z,6.43
2022-12-07T17:49:18.813Z,6.61
2022-12-07T17:52:04.970Z,6.81
2022-12-07T17:54:32.590Z,6.74
2022-12-07T17:57:00.310Z,6.64
2022-12-07T17:59:27.960Z,6.54
2022-12-07T18:01:55.825Z,6.59
2022-12-07T18:04:23.675Z,6.50
2022-12-07T18:06:52.606Z,6.55
2022-12-07T18:09:22.064Z,6.62
2022-12-07T18:11:50.107Z,6.66
2022-12-07T18:14:17.984Z,6.68
2022-12-07T18:16:46.042Z,6.69
2022-12-07T18:19:15.849Z,6.75
2022-12-07T18:21:44.821Z,6.58
2022-12-07T18:24:15.698Z,6.47
2022-12-07T18:26:44.932Z,6.59
2022-12-07T18:29:15.321Z,6.86
2022-12-07T18:31:44.843Z,6.92
2022-12-07T18:34:15.606Z,6.85
2022-12-07T18:36:46.229Z,7.03
2022-12-07T18:39:15.763Z,7.15
2022-12-07T18:41:44.339Z,7.19
2022-12-07T18:44:13.629Z,7.22
2022-12-07T18:46:42.673Z,7.11
2022-12-07T18:49:13.663Z,7.24
2022-12-07T18:51:42.782Z,7.25
2022-12-07T18:54:10.268Z,7.36
2022-12-07T18:56:38.402Z,7.22
2022-12-07T18:59:26.039Z,7.09
2022-12-07T19:01:55.225Z,7.17
2022-12-07T19:04:23.524Z,6.95
2022-12-07T19:06:52.046Z,6.99
2022-12-07T19:09:20.419Z,7.11
2022-12-07T19:11:50.926Z,6.99
2022-12-07T19:14:21.489Z,6.72
2022-12-07T19:16:51.653Z,6.76
2022-12-07T19:19:22.898Z,6.93
2022-12-07T19:21:51.163Z,7.01
2022-12-07T19:24:23.105Z,6.87
2022-12-07T19:26:52.601Z,6.86
2022-12-07T19:29:22.479Z,7.00
2022-12-07T19:31:50.689Z,7.05
2022-12-07T19:34:18.462Z,7.03
2022-12-07T19:36:46.794Z,7.10
2022-12-07T19:39:15.899Z,7.15
2022-12-07T19:41:45.025Z,7.07
2022-12-07T19:44:15.213Z,7.13
2022-12-07T19:46:49.920Z,6.91
2022-12-07T19:49:19.080Z,6.95
2022-12-07T19:51:49.808Z,6.72
2022-12-07T19:54:21.385Z,6.85
2022-12-07T19:56:50.648Z,6.87
2022-12-07T19:59:19.944Z,6.86
2022-12-07T20:01:47.890Z,6.92
2022-12-07T20:04:22.821Z,6.96
2022-12-07T20:06:58.375Z,6.85
2022-12-07T20:09:27.620Z,6.91
2022-12-07T20:12:13.812Z,6.99
2022-12-07T20:14:41.747Z,6.76
2022-12-07T20:17:11.908Z,6.00
2022-12-07T20:19:42.935Z,5.95
2022-12-07T20:22:10.727Z,5.99
2022-12-07T20:24:43.596Z,6.33
2022-12-07T20:27:11.201Z,6.17
2022-12-07T20:29:38.833Z,5.85
2022-12-07T20:32:06.548Z,6.09
2022-12-07T20:34:34.392Z,6.09
2022-12-07T20:37:02.097Z,6.33
2022-12-07T20:39:29.844Z,6.47
2022-12-07T20:42:16.361Z,6.54
2022-12-07T20:44:43.936Z,6.38
2022-12-07T20:47:11.558Z,6.51
2022-12-07T20:49:42.688Z,6.63
2022-12-07T20:52:10.306Z,6.72
2022-12-07T20:54:38.099Z,6.64
2022-12-07T20:57:05.789Z,6.70
2022-12-07T20:59:39.850Z,6.73
2022-12-07T21:02:21.325Z,6.82
2022-12-07T21:04:49.136Z,6.68
2022-12-07T21:07:22.818Z,6.74
2022-12-07T21:09:51.596Z,6.86
2022-12-07T21:12:20.151Z,6.88
2022-12-07T21:14:48.179Z,6.93
2022-12-07T21:17:15.929Z,6.87
2022-12-07T21:19:43.536Z,6.82
2022-12-07T21:22:11.337Z,5.58
2022-12-07T21:24:39.743Z,5.95
2022-12-07T21:27:07.983Z,5.70
2022-12-07T21:29:44.194Z,6.15
2022-12-07T21:32:13.625Z,6.08
2022-12-07T21:34:41.603Z,5.80
2022-12-07T21:37:09.524Z,6.20
2022-12-07T21:39:37.766Z,5.89
2022-12-07T21:42:05.694Z,5.86
2022-12-07T21:44:33.631Z,6.14
2022-12-07T21:47:01.316Z,6.27
2022-12-07T21:49:32.013Z,6.30
2022-12-07T21:51:59.562Z,6.35
2022-12-07T21:54:27.209Z,6.44
2022-12-07T21:56:54.771Z,6.52
2022-12-07T21:59:22.660Z,6.59
2022-12-07T22:01:52.021Z,6.62
2022-12-07T22:04:23.474Z,5.99
2022-12-07T22:06:53.083Z,6.29
2022-12-07T22:09:23.908Z,6.47
2022-12-07T22:11:51.877Z,6.53
2022-12-07T22:14:38.789Z,6.54
2022-12-07T22:17:06.623Z,6.65
2022-12-07T22:19:34.312Z,6.65
2022-12-07T22:22:02.040Z,6.54
2022-12-07T22:24:29.743Z,6.54
2022-12-07T22:26:57.511Z,6.43
2022-12-07T22:29:26.081Z,6.46
2022-12-07T22:31:54.511Z,6.35
2022-12-07T22:34:22.640Z,6.35
2022-12-07T22:36:50.248Z,6.25
2022-12-07T22:39:18.225Z,5.51
2022-12-07T22:41:49.015Z,5.82
2022-12-07T22:44:16.606Z,5.95
2022-12-07T22:46:44.500Z,5.98
2022-12-07T22:49:12.786Z,5.79
2022-12-07T22:51:44.185Z,5.97
2022-12-07T22:54:16.534Z,6.05
2022-12-07T22:56:45.358Z,5.84
2022-12-07T22:59:14.432Z,5.85
2022-12-07T23:01:42.210Z,5.81
2022-12-07T23:04:10.595Z,5.81
2022-12-07T23:06:38.254Z,5.87
2022-12-07T23:09:10.383Z,5.84
2022-12-07T23:20:58.178Z,5.42
2022-12-07T23:23:26.958Z,5.48
2022-12-07T23:25:54.875Z,5.32
2022-12-07T23:28:22.572Z,5.27
2022-12-07T23:30:50.155Z,5.24
2022-12-07T23:33:21.291Z,5.30
2022-12-07T23:35:48.977Z,5.36
2022-12-07T23:38:17.387Z,5.44
2022-12-07T23:40:45.136Z,5.25
2022-12-07T23:43:13.057Z,5.35
2022-12-07T23:45:40.727Z,5.48
2022-12-07T23:48:08.486Z,5.39
2022-12-07T23:50:36.064Z,5.32
2022-12-07T23:53:03.875Z,5.41
2022-12-07T23:55:31.589Z,5.32
2022-12-07T23:57:59.263Z,5.29
